sensor_id;sensor_type;location;lat;lon;timestamp;P1;durP1;ratioP1;P2;durP2;ratioP2
76813;SDS011;65767;49.360;8.266;2023-01-09T00:00:34;4.40;;;3.50;;
76813;SDS011;65767;49.360;8.266;2023-01-09T00:01:41;5.30;;;3.90;;
76813;SDS011;65767;49.360;8.266;2023-01-09T00:02:43;5.70;;;3.08;;
76813;SDS011;65767;49.360;8.266;2023-01-09T00:03:46;3.40;;;3.10;;
76813;SDS011;65767;49.360;8.266;2023-01-09T00:04:47;3.80;;;3.05;;
76813;SDS011;65767;49.360;8.266;2023-01-09T00:05:51;4.53;;;3.20;;
76813;SDS011;65767;49.360;8.266;2023-01-09T00:06:51;3.20;;;2.90;;
76813;SDS011;65767;49.360;8.266;2023-01-09T00:07:57;3.20;;;3.00;;
76813;SDS011;65767;49.360;8.266;2023-01-09T00:08:59;3.58;;;3.05;;
76813;SDS011;65767;49.360;8.266;2023-01-09T00:10:03;3.58;;;2.83;;
76813;SDS011;65767;49.360;8.266;2023-01-09T00:11:04;3.08;;;2.78;;
76813;SDS011;65767;49.360;8.266;2023-01-09T00:12:05;3.33;;;2.70;;
76813;SDS011;65767;49.360;8.266;2023-01-09T00:13:05;4.30;;;2.83;;
76813;SDS011;65767;49.360;8.266;2023-01-09T00:14:07;2.87;;;2.40;;
76813;SDS011;65767;49.360;8.266;2023-01-09T00:15:10;3.28;;;2.72;;
76813;SDS011;65767;49.360;8.266;2023-01-09T00:16:11;2.80;;;2.60;;
76813;SDS011;65767;49.360;8.266;2023-01-09T00:17:13;3.53;;;2.53;;
76813;SDS011;65767;49.360;8.266;2023-01-09T00:18:15;3.65;;;2.60;;
76813;SDS011;65767;49.360;8.266;2023-01-09T00:19:15;5.30;;;2.83;;
76813;SDS011;65767;49.360;8.266;2023-01-09T00:20:16;3.20;;;2.63;;
76813;SDS011;65767;49.360;8.266;2023-01-09T00:21:18;3.20;;;2.45;;
76813;SDS011;65767;49.360;8.266;2023-01-09T00:22:19;3.00;;;2.40;;
76813;SDS011;65767;49.360;8.266;2023-01-09T00:23:24;3.25;;;2.50;;
76813;SDS011;65767;49.360;8.266;2023-01-09T00:24:27;3.67;;;2.60;;
76813;SDS011;65767;49.360;8.266;2023-01-09T00:25:30;3.65;;;2.60;;
76813;SDS011;65767;49.360;8.266;2023-01-09T00:26:34;3.25;;;2.38;;
76813;SDS011;65767;49.360;8.266;2023-01-09T00:27:36;2.97;;;2.45;;
76813;SDS011;65767;49.360;8.266;2023-01-09T00:28:39;2.88;;;2.55;;
76813;SDS011;65767;49.360;8.266;2023-01-09T00:29:44;2.50;;;2.30;;
76813;SDS011;65767;49.360;8.266;2023-01-09T00:30:45;2.50;;;2.30;;
76813;SDS011;65767;49.360;8.266;2023-01-09T00:31:54;2.22;;;2.03;;
76813;SDS011;65767;49.360;8.266;2023-01-09T00:32:55;2.50;;;2.30;;
76813;SDS011;65767;49.360;8.266;2023-01-09T00:34:04;4.30;;;2.70;;
76813;SDS011;65767;49.360;8.266;2023-01-09T00:35:10;2.75;;;2.55;;
76813;SDS011;65767;49.360;8.266;2023-01-09T00:36:17;2.72;;;2.38;;
76813;SDS011;65767;49.360;8.266;2023-01-09T00:37:19;3.33;;;2.53;;
76813;SDS011;65767;49.360;8.266;2023-01-09T00:38:20;2.60;;;2.40;;
76813;SDS011;65767;49.360;8.266;2023-01-09T00:39:21;2.95;;;2.58;;
76813;SDS011;65767;49.360;8.266;2023-01-09T00:40:22;5.23;;;2.70;;
76813;SDS011;65767;49.360;8.266;2023-01-09T00:41:28;3.07;;;2.37;;
76813;SDS011;65767;49.360;8.266;2023-01-09T00:42:29;3.28;;;2.60;;
76813;SDS011;65767;49.360;8.266;2023-01-09T00:43:31;2.80;;;2.60;;
76813;SDS011;65767;49.360;8.266;2023-01-09T00:44:34;2.80;;;2.60;;
76813;SDS011;65767;49.360;8.266;2023-01-09T00:45:39;2.80;;;2.58;;
76813;SDS011;65767;49.360;8.266;2023-01-09T00:46:42;2.72;;;2.53;;
76813;SDS011;65767;49.360;8.266;2023-01-09T00:47:45;2.60;;;2.40;;
76813;SDS011;65767;49.360;8.266;2023-01-09T00:48:47;3.70;;;2.60;;
76813;SDS011;65767;49.360;8.266;2023-01-09T00:49:48;3.25;;;2.95;;
76813;SDS011;65767;49.360;8.266;2023-01-09T00:50:50;2.75;;;2.55;;
76813;SDS011;65767;49.360;8.266;2023-01-09T00:51:52;2.63;;;2.42;;
76813;SDS011;65767;49.360;8.266;2023-01-09T00:52:59;2.78;;;2.58;;
76813;SDS011;65767;49.360;8.266;2023-01-09T00:54:05;3.38;;;2.50;;
76813;SDS011;65767;49.360;8.266;2023-01-09T00:55:06;2.97;;;2.67;;
76813;SDS011;65767;49.360;8.266;2023-01-09T00:56:09;2.83;;;2.63;;
76813;SDS011;65767;49.360;8.266;2023-01-09T00:57:12;3.42;;;2.90;;
76813;SDS011;65767;49.360;8.266;2023-01-09T00:58:14;3.08;;;2.78;;
76813;SDS011;65767;49.360;8.266;2023-01-09T00:59:15;3.17;;;2.80;;
76813;SDS011;65767;49.360;8.266;2023-01-09T01:00:15;2.77;;;2.57;;
76813;SDS011;65767;49.360;8.266;2023-01-09T01:01:24;3.30;;;2.90;;
76813;SDS011;65767;49.360;8.266;2023-01-09T01:02:25;3.10;;;2.80;;
76813;SDS011;65767;49.360;8.266;2023-01-09T01:03:27;2.97;;;2.77;;
76813;SDS011;65767;49.360;8.266;2023-01-09T01:04:28;3.42;;;3.13;;
76813;SDS011;65767;49.360;8.266;2023-01-09T01:05:47;4.95;;;2.80;;
76813;SDS011;65767;49.360;8.266;2023-01-09T01:07:08;3.05;;;2.72;;
76813;SDS011;65767;49.360;8.266;2023-01-09T01:08:27;3.38;;;3.08;;
76813;SDS011;65767;49.360;8.266;2023-01-09T01:09:27;3.13;;;2.83;;
76813;SDS011;65767;49.360;8.266;2023-01-09T01:10:29;3.33;;;3.03;;
76813;SDS011;65767;49.360;8.266;2023-01-09T01:11:30;3.83;;;3.20;;
76813;SDS011;65767;49.360;8.266;2023-01-09T01:12:31;3.97;;;3.23;;
76813;SDS011;65767;49.360;8.266;2023-01-09T01:13:31;3.40;;;3.10;;
76813;SDS011;65767;49.360;8.266;2023-01-09T01:14:36;3.30;;;3.00;;
76813;SDS011;65767;49.360;8.266;2023-01-09T01:15:39;3.45;;;3.15;;
76813;SDS011;65767;49.360;8.266;2023-01-09T01:16:39;3.90;;;3.15;;
76813;SDS011;65767;49.360;8.266;2023-01-09T01:17:41;3.27;;;2.97;;
76813;SDS011;65767;49.360;8.266;2023-01-09T01:18:42;5.13;;;3.28;;
76813;SDS011;65767;49.360;8.266;2023-01-09T01:19:44;3.73;;;3.33;;
76813;SDS011;65767;49.360;8.266;2023-01-09T01:20:45;3.35;;;3.05;;
76813;SDS011;65767;49.360;8.266;2023-01-09T01:21:46;3.33;;;3.03;;
76813;SDS011;65767;49.360;8.266;2023-01-09T01:22:47;3.43;;;3.13;;
76813;SDS011;65767;49.360;8.266;2023-01-09T01:23:47;3.30;;;3.00;;
76813;SDS011;65767;49.360;8.266;2023-01-09T01:24:49;3.42;;;3.03;;
76813;SDS011;65767;49.360;8.266;2023-01-09T01:25:53;2.70;;;2.50;;
76813;SDS011;65767;49.360;8.266;2023-01-09T01:26:54;3.15;;;2.80;;
76813;SDS011;65767;49.360;8.266;2023-01-09T01:27:56;3.40;;;3.10;;
76813;SDS011;65767;49.360;8.266;2023-01-09T01:28:58;4.03;;;3.10;;
76813;SDS011;65767;49.360;8.266;2023-01-09T01:29:59;3.30;;;3.00;;
76813;SDS011;65767;49.360;8.266;2023-01-09T01:30:59;3.20;;;2.90;;
76813;SDS011;65767;49.360;8.266;2023-01-09T01:32:00;3.70;;;2.83;;
76813;SDS011;65767;49.360;8.266;2023-01-09T01:33:02;3.05;;;2.67;;
76813;SDS011;65767;49.360;8.266;2023-01-09T01:34:03;3.53;;;3.22;;
76813;SDS011;65767;49.360;8.266;2023-01-09T01:35:05;3.35;;;2.85;;
76813;SDS011;65767;49.360;8.266;2023-01-09T01:36:08;3.03;;;2.70;;
76813;SDS011;65767;49.360;8.266;2023-01-09T01:37:10;3.70;;;2.60;;
76813;SDS011;65767;49.360;8.266;2023-01-09T01:38:13;3.40;;;2.72;;
76813;SDS011;65767;49.360;8.266;2023-01-09T01:39:13;4.27;;;2.83;;
76813;SDS011;65767;49.360;8.266;2023-01-09T01:40:15;3.28;;;2.95;;
76813;SDS011;65767;49.360;8.266;2023-01-09T01:41:16;2.92;;;2.53;;
76813;SDS011;65767;49.360;8.266;2023-01-09T01:42:28;4.32;;;2.50;;
76813;SDS011;65767;49.360;8.266;2023-01-09T01:43:47;3.17;;;2.83;;
76813;SDS011;65767;49.360;8.266;2023-01-09T01:45:54;3.75;;;3.03;;
76813;SDS011;65767;49.360;8.266;2023-01-09T01:46:55;3.30;;;3.00;;
76813;SDS011;65767;49.360;8.266;2023-01-09T01:47:57;3.77;;;3.47;;
76813;SDS011;65767;49.360;8.266;2023-01-09T01:49:11;3.50;;;3.20;;
76813;SDS011;65767;49.360;8.266;2023-01-09T01:50:16;4.10;;;3.22;;
76813;SDS011;65767;49.360;8.266;2023-01-09T01:51:17;3.53;;;3.20;;
76813;SDS011;65767;49.360;8.266;2023-01-09T01:52:20;4.88;;;3.33;;
76813;SDS011;65767;49.360;8.266;2023-01-09T01:53:25;3.50;;;3.20;;
76813;SDS011;65767;49.360;8.266;2023-01-09T01:54:27;3.53;;;3.20;;
76813;SDS011;65767;49.360;8.266;2023-01-09T01:55:28;4.55;;;3.80;;
76813;SDS011;65767;49.360;8.266;2023-01-09T01:56:31;4.67;;;3.87;;
76813;SDS011;65767;49.360;8.266;2023-01-09T01:57:33;4.18;;;3.78;;
76813;SDS011;65767;49.360;8.266;2023-01-09T01:58:57;5.63;;;4.05;;
76813;SDS011;65767;49.360;8.266;2023-01-09T01:59:56;4.07;;;3.67;;
76813;SDS011;65767;49.360;8.266;2023-01-09T02:00:57;4.70;;;4.03;;
76813;SDS011;65767;49.360;8.266;2023-01-09T02:01:58;3.80;;;3.50;;
76813;SDS011;65767;49.360;8.266;2023-01-09T02:03:00;5.53;;;4.05;;
76813;SDS011;65767;49.360;8.266;2023-01-09T02:04:01;5.33;;;4.00;;
76813;SDS011;65767;49.360;8.266;2023-01-09T02:05:02;5.10;;;3.95;;
76813;SDS011;65767;49.360;8.266;2023-01-09T02:06:03;3.90;;;3.50;;
76813;SDS011;65767;49.360;8.266;2023-01-09T02:07:06;3.97;;;3.63;;
76813;SDS011;65767;49.360;8.266;2023-01-09T02:08:07;4.97;;;4.10;;
76813;SDS011;65767;49.360;8.266;2023-01-09T02:09:09;5.68;;;3.88;;
76813;SDS011;65767;49.360;8.266;2023-01-09T02:10:12;4.00;;;3.67;;
76813;SDS011;65767;49.360;8.266;2023-01-09T02:11:13;3.80;;;3.40;;
76813;SDS011;65767;49.360;8.266;2023-01-09T02:12:16;3.40;;;3.10;;
76813;SDS011;65767;49.360;8.266;2023-01-09T02:13:17;4.00;;;3.42;;
76813;SDS011;65767;49.360;8.266;2023-01-09T02:14:19;3.97;;;3.20;;
76813;SDS011;65767;49.360;8.266;2023-01-09T02:15:21;4.13;;;3.35;;
76813;SDS011;65767;49.360;8.266;2023-01-09T02:18:51;3.67;;;3.38;;
76813;SDS011;65767;49.360;8.266;2023-01-09T02:22:45;2.70;;;2.50;;
76813;SDS011;65767;49.360;8.266;2023-01-09T02:24:04;2.90;;;2.70;;
76813;SDS011;65767;49.360;8.266;2023-01-09T02:28:51;2.77;;;2.57;;
76813;SDS011;65767;49.360;8.266;2023-01-09T02:31:19;2.50;;;2.28;;
76813;SDS011;65767;49.360;8.266;2023-01-09T02:40:46;2.30;;;1.85;;
76813;SDS011;65767;49.360;8.266;2023-01-09T02:41:52;3.13;;;1.63;;
76813;SDS011;65767;49.360;8.266;2023-01-09T02:42:54;2.13;;;1.77;;
76813;SDS011;65767;49.360;8.266;2023-01-09T02:45:15;3.28;;;1.83;;
76813;SDS011;65767;49.360;8.266;2023-01-09T02:46:17;2.70;;;1.80;;
76813;SDS011;65767;49.360;8.266;2023-01-09T02:48:19;1.88;;;1.70;;
76813;SDS011;65767;49.360;8.266;2023-01-09T02:49:20;1.80;;;1.70;;
76813;SDS011;65767;49.360;8.266;2023-01-09T02:50:23;1.63;;;1.53;;
76813;SDS011;65767;49.360;8.266;2023-01-09T02:51:30;1.67;;;1.58;;
76813;SDS011;65767;49.360;8.266;2023-01-09T02:55:10;1.85;;;1.58;;
76813;SDS011;65767;49.360;8.266;2023-01-09T02:56:18;2.95;;;1.85;;
76813;SDS011;65767;49.360;8.266;2023-01-09T02:59:02;4.07;;;1.60;;
76813;SDS011;65767;49.360;8.266;2023-01-09T03:01:29;1.60;;;1.50;;
76813;SDS011;65767;49.360;8.266;2023-01-09T03:03:35;2.30;;;1.40;;
76813;SDS011;65767;49.360;8.266;2023-01-09T03:04:43;1.15;;;1.10;;
76813;SDS011;65767;49.360;8.266;2023-01-09T03:05:46;1.50;;;1.00;;
76813;SDS011;65767;49.360;8.266;2023-01-09T03:08:13;2.20;;;1.50;;
76813;SDS011;65767;49.360;8.266;2023-01-09T03:09:20;1.10;;;1.00;;
76813;SDS011;65767;49.360;8.266;2023-01-09T03:10:23;1.83;;;1.15;;
76813;SDS011;65767;49.360;8.266;2023-01-09T03:11:26;1.05;;;0.98;;
76813;SDS011;65767;49.360;8.266;2023-01-09T03:12:28;0.70;;;0.70;;
76813;SDS011;65767;49.360;8.266;2023-01-09T03:13:47;0.73;;;0.50;;
76813;SDS011;65767;49.360;8.266;2023-01-09T03:14:50;1.02;;;0.70;;
76813;SDS011;65767;49.360;8.266;2023-01-09T03:15:51;1.00;;;0.57;;
76813;SDS011;65767;49.360;8.266;2023-01-09T03:16:54;0.98;;;0.75;;
76813;SDS011;65767;49.360;8.266;2023-01-09T03:17:56;2.47;;;0.70;;
76813;SDS011;65767;49.360;8.266;2023-01-09T03:18:56;0.77;;;0.40;;
76813;SDS011;65767;49.360;8.266;2023-01-09T03:19:58;1.55;;;0.50;;
76813;SDS011;65767;49.360;8.266;2023-01-09T03:21:00;1.05;;;0.73;;
76813;SDS011;65767;49.360;8.266;2023-01-09T03:22:01;1.13;;;0.60;;
76813;SDS011;65767;49.360;8.266;2023-01-09T03:23:03;2.23;;;1.07;;
76813;SDS011;65767;49.360;8.266;2023-01-09T03:24:04;1.20;;;0.47;;
76813;SDS011;65767;49.360;8.266;2023-01-09T03:25:04;0.67;;;0.50;;
76813;SDS011;65767;49.360;8.266;2023-01-09T03:26:08;1.70;;;0.73;;
76813;SDS011;65767;49.360;8.266;2023-01-09T03:27:09;0.60;;;0.40;;
76813;SDS011;65767;49.360;8.266;2023-01-09T03:28:17;1.23;;;0.70;;
76813;SDS011;65767;49.360;8.266;2023-01-09T03:29:20;0.57;;;0.57;;
76813;SDS011;65767;49.360;8.266;2023-01-09T03:30:20;1.17;;;0.80;;
76813;SDS011;65767;49.360;8.266;2023-01-09T03:31:21;2.10;;;1.70;;
76813;SDS011;65767;49.360;8.266;2023-01-09T03:32:21;2.90;;;1.40;;
76813;SDS011;65767;49.360;8.266;2023-01-09T03:33:22;1.13;;;1.03;;
76813;SDS011;65767;49.360;8.266;2023-01-09T03:34:22;1.30;;;1.20;;
76813;SDS011;65767;49.360;8.266;2023-01-09T03:35:23;1.00;;;0.90;;
76813;SDS011;65767;49.360;8.266;2023-01-09T03:36:23;1.60;;;0.70;;
76813;SDS011;65767;49.360;8.266;2023-01-09T03:37:24;0.60;;;0.40;;
76813;SDS011;65767;49.360;8.266;2023-01-09T03:38:24;0.50;;;0.50;;
76813;SDS011;65767;49.360;8.266;2023-01-09T03:39:24;0.30;;;0.30;;
76813;SDS011;65767;49.360;8.266;2023-01-09T03:40:25;1.40;;;0.33;;
76813;SDS011;65767;49.360;8.266;2023-01-09T03:41:25;3.03;;;0.50;;
76813;SDS011;65767;49.360;8.266;2023-01-09T03:42:25;0.40;;;0.40;;
76813;SDS011;65767;49.360;8.266;2023-01-09T03:43:26;1.77;;;0.50;;
76813;SDS011;65767;49.360;8.266;2023-01-09T03:44:26;0.87;;;0.37;;
76813;SDS011;65767;49.360;8.266;2023-01-09T03:45:26;0.70;;;0.40;;
76813;SDS011;65767;49.360;8.266;2023-01-09T03:46:27;0.37;;;0.30;;
76813;SDS011;65767;49.360;8.266;2023-01-09T03:47:27;1.07;;;0.60;;
76813;SDS011;65767;49.360;8.266;2023-01-09T03:48:27;1.07;;;0.53;;
76813;SDS011;65767;49.360;8.266;2023-01-09T03:49:28;1.43;;;0.50;;
76813;SDS011;65767;49.360;8.266;2023-01-09T03:50:28;0.87;;;0.47;;
76813;SDS011;65767;49.360;8.266;2023-01-09T03:51:28;1.33;;;0.47;;
76813;SDS011;65767;49.360;8.266;2023-01-09T03:52:29;0.50;;;0.50;;
76813;SDS011;65767;49.360;8.266;2023-01-09T03:53:29;1.63;;;0.70;;
76813;SDS011;65767;49.360;8.266;2023-01-09T03:54:29;1.03;;;0.93;;
76813;SDS011;65767;49.360;8.266;2023-01-09T03:55:30;1.90;;;0.63;;
76813;SDS011;65767;49.360;8.266;2023-01-09T03:56:30;0.47;;;0.40;;
76813;SDS011;65767;49.360;8.266;2023-01-09T03:57:30;0.80;;;0.50;;
76813;SDS011;65767;49.360;8.266;2023-01-09T03:58:31;0.47;;;0.47;;
76813;SDS011;65767;49.360;8.266;2023-01-09T03:59:31;0.27;;;0.27;;
76813;SDS011;65767;49.360;8.266;2023-01-09T04:00:31;1.70;;;0.73;;
76813;SDS011;65767;49.360;8.266;2023-01-09T04:01:32;0.70;;;0.50;;
76813;SDS011;65767;49.360;8.266;2023-01-09T04:02:32;0.93;;;0.60;;
76813;SDS011;65767;49.360;8.266;2023-01-09T04:03:33;2.33;;;0.67;;
76813;SDS011;65767;49.360;8.266;2023-01-09T04:04:33;1.97;;;0.90;;
76813;SDS011;65767;49.360;8.266;2023-01-09T04:05:34;1.13;;;0.77;;
76813;SDS011;65767;49.360;8.266;2023-01-09T04:06:35;2.40;;;0.70;;
76813;SDS011;65767;49.360;8.266;2023-01-09T04:07:35;1.93;;;0.80;;
76813;SDS011;65767;49.360;8.266;2023-01-09T04:08:35;1.03;;;0.50;;
76813;SDS011;65767;49.360;8.266;2023-01-09T04:09:36;0.40;;;0.40;;
76813;SDS011;65767;49.360;8.266;2023-01-09T04:10:36;1.03;;;0.40;;
76813;SDS011;65767;49.360;8.266;2023-01-09T04:11:36;1.40;;;0.60;;
76813;SDS011;65767;49.360;8.266;2023-01-09T04:12:37;1.53;;;0.40;;
76813;SDS011;65767;49.360;8.266;2023-01-09T04:13:37;0.40;;;0.40;;
76813;SDS011;65767;49.360;8.266;2023-01-09T04:14:38;0.40;;;0.40;;
76813;SDS011;65767;49.360;8.266;2023-01-09T04:15:39;0.57;;;0.50;;
76813;SDS011;65767;49.360;8.266;2023-01-09T04:16:39;0.67;;;0.67;;
76813;SDS011;65767;49.360;8.266;2023-01-09T04:17:39;1.50;;;0.50;;
76813;SDS011;65767;49.360;8.266;2023-01-09T04:18:40;1.33;;;0.50;;
76813;SDS011;65767;49.360;8.266;2023-01-09T04:19:40;1.27;;;0.50;;
76813;SDS011;65767;49.360;8.266;2023-01-09T04:20:40;0.93;;;0.80;;
76813;SDS011;65767;49.360;8.266;2023-01-09T04:21:41;1.27;;;0.40;;
76813;SDS011;65767;49.360;8.266;2023-01-09T04:22:41;2.17;;;0.50;;
76813;SDS011;65767;49.360;8.266;2023-01-09T04:23:42;1.20;;;0.40;;
76813;SDS011;65767;49.360;8.266;2023-01-09T04:24:44;0.70;;;0.50;;
76813;SDS011;65767;49.360;8.266;2023-01-09T04:25:44;0.50;;;0.40;;
76813;SDS011;65767;49.360;8.266;2023-01-09T04:26:46;0.60;;;0.50;;
76813;SDS011;65767;49.360;8.266;2023-01-09T04:27:47;0.70;;;0.70;;
76813;SDS011;65767;49.360;8.266;2023-01-09T04:28:47;1.33;;;0.40;;
76813;SDS011;65767;49.360;8.266;2023-01-09T04:29:48;0.80;;;0.50;;
76813;SDS011;65767;49.360;8.266;2023-01-09T04:30:48;0.60;;;0.30;;
76813;SDS011;65767;49.360;8.266;2023-01-09T04:31:48;0.60;;;0.50;;
76813;SDS011;65767;49.360;8.266;2023-01-09T04:32:49;1.13;;;0.40;;
76813;SDS011;65767;49.360;8.266;2023-01-09T04:33:51;0.50;;;0.50;;
76813;SDS011;65767;49.360;8.266;2023-01-09T04:34:51;0.73;;;0.47;;
76813;SDS011;65767;49.360;8.266;2023-01-09T04:35:51;0.50;;;0.50;;
76813;SDS011;65767;49.360;8.266;2023-01-09T04:36:52;0.40;;;0.40;;
76813;SDS011;65767;49.360;8.266;2023-01-09T04:37:53;0.80;;;0.50;;
76813;SDS011;65767;49.360;8.266;2023-01-09T04:38:53;0.43;;;0.43;;
76813;SDS011;65767;49.360;8.266;2023-01-09T04:39:53;1.03;;;0.40;;
76813;SDS011;65767;49.360;8.266;2023-01-09T04:40:55;1.38;;;0.40;;
76813;SDS011;65767;49.360;8.266;2023-01-09T04:41:55;0.40;;;0.40;;
76813;SDS011;65767;49.360;8.266;2023-01-09T04:42:55;1.73;;;0.60;;
76813;SDS011;65767;49.360;8.266;2023-01-09T04:43:56;0.70;;;0.53;;
76813;SDS011;65767;49.360;8.266;2023-01-09T04:44:56;1.67;;;0.57;;
76813;SDS011;65767;49.360;8.266;2023-01-09T04:45:57;1.00;;;0.60;;
76813;SDS011;65767;49.360;8.266;2023-01-09T04:46:57;0.60;;;0.60;;
76813;SDS011;65767;49.360;8.266;2023-01-09T04:47:58;2.70;;;0.97;;
76813;SDS011;65767;49.360;8.266;2023-01-09T04:48:58;0.43;;;0.43;;
76813;SDS011;65767;49.360;8.266;2023-01-09T04:49:59;0.77;;;0.70;;
76813;SDS011;65767;49.360;8.266;2023-01-09T04:50:59;0.60;;;0.60;;
76813;SDS011;65767;49.360;8.266;2023-01-09T04:51:59;2.03;;;0.73;;
76813;SDS011;65767;49.360;8.266;2023-01-09T04:53:00;1.73;;;0.80;;
76813;SDS011;65767;49.360;8.266;2023-01-09T04:54:00;2.60;;;0.77;;
76813;SDS011;65767;49.360;8.266;2023-01-09T04:55:01;1.87;;;0.80;;
76813;SDS011;65767;49.360;8.266;2023-01-09T04:56:01;1.73;;;0.83;;
76813;SDS011;65767;49.360;8.266;2023-01-09T04:57:01;1.83;;;0.87;;
76813;SDS011;65767;49.360;8.266;2023-01-09T04:58:02;0.67;;;0.67;;
76813;SDS011;65767;49.360;8.266;2023-01-09T04:59:02;0.53;;;0.50;;
76813;SDS011;65767;49.360;8.266;2023-01-09T05:00:03;0.80;;;0.38;;
76813;SDS011;65767;49.360;8.266;2023-01-09T05:01:08;4.57;;;1.00;;
76813;SDS011;65767;49.360;8.266;2023-01-09T05:02:09;1.57;;;0.87;;
76813;SDS011;65767;49.360;8.266;2023-01-09T05:03:09;2.77;;;1.20;;
76813;SDS011;65767;49.360;8.266;2023-01-09T05:04:09;1.60;;;1.17;;
76813;SDS011;65767;49.360;8.266;2023-01-09T05:05:10;3.57;;;1.10;;
76813;SDS011;65767;49.360;8.266;2023-01-09T05:06:10;1.87;;;0.73;;
76813;SDS011;65767;49.360;8.266;2023-01-09T05:07:11;1.33;;;0.70;;
76813;SDS011;65767;49.360;8.266;2023-01-09T05:08:11;2.83;;;0.70;;
76813;SDS011;65767;49.360;8.266;2023-01-09T05:09:11;5.03;;;0.77;;
76813;SDS011;65767;49.360;8.266;2023-01-09T05:10:12;2.37;;;0.83;;
76813;SDS011;65767;49.360;8.266;2023-01-09T05:11:12;1.27;;;0.70;;
76813;SDS011;65767;49.360;8.266;2023-01-09T05:12:12;2.70;;;1.10;;
76813;SDS011;65767;49.360;8.266;2023-01-09T05:13:13;2.13;;;1.07;;
76813;SDS011;65767;49.360;8.266;2023-01-09T05:14:13;2.63;;;0.90;;
76813;SDS011;65767;49.360;8.266;2023-01-09T05:15:13;2.63;;;0.80;;
76813;SDS011;65767;49.360;8.266;2023-01-09T05:16:14;1.57;;;0.80;;
76813;SDS011;65767;49.360;8.266;2023-01-09T05:17:14;3.30;;;1.40;;
76813;SDS011;65767;49.360;8.266;2023-01-09T05:18:14;2.93;;;0.97;;
76813;SDS011;65767;49.360;8.266;2023-01-09T05:19:15;2.97;;;1.03;;
76813;SDS011;65767;49.360;8.266;2023-01-09T05:20:15;1.87;;;0.90;;
76813;SDS011;65767;49.360;8.266;2023-01-09T05:21:16;2.57;;;0.90;;
76813;SDS011;65767;49.360;8.266;2023-01-09T05:22:16;3.13;;;0.90;;
76813;SDS011;65767;49.360;8.266;2023-01-09T05:23:16;3.53;;;0.80;;
76813;SDS011;65767;49.360;8.266;2023-01-09T05:24:17;1.33;;;0.83;;
76813;SDS011;65767;49.360;8.266;2023-01-09T05:25:17;2.83;;;1.17;;
76813;SDS011;65767;49.360;8.266;2023-01-09T05:26:19;3.87;;;1.30;;
76813;SDS011;65767;49.360;8.266;2023-01-09T05:27:23;3.22;;;1.25;;
76813;SDS011;65767;49.360;8.266;2023-01-09T05:28:23;2.23;;;1.30;;
76813;SDS011;65767;49.360;8.266;2023-01-09T05:29:23;3.23;;;1.03;;
76813;SDS011;65767;49.360;8.266;2023-01-09T05:30:24;5.00;;;1.20;;
76813;SDS011;65767;49.360;8.266;2023-01-09T05:31:25;1.73;;;0.90;;
76813;SDS011;65767;49.360;8.266;2023-01-09T05:32:25;1.15;;;0.82;;
76813;SDS011;65767;49.360;8.266;2023-01-09T05:33:26;1.87;;;0.80;;
76813;SDS011;65767;49.360;8.266;2023-01-09T05:34:26;4.27;;;1.03;;
76813;SDS011;65767;49.360;8.266;2023-01-09T05:35:27;2.63;;;1.10;;
76813;SDS011;65767;49.360;8.266;2023-01-09T05:36:28;3.20;;;1.00;;
76813;SDS011;65767;49.360;8.266;2023-01-09T05:37:29;6.07;;;1.25;;
76813;SDS011;65767;49.360;8.266;2023-01-09T05:38:30;7.33;;;1.57;;
76813;SDS011;65767;49.360;8.266;2023-01-09T05:39:30;5.23;;;1.57;;
76813;SDS011;65767;49.360;8.266;2023-01-09T05:40:31;4.90;;;1.20;;
76813;SDS011;65767;49.360;8.266;2023-01-09T05:41:32;2.42;;;1.02;;
76813;SDS011;65767;49.360;8.266;2023-01-09T05:42:33;3.57;;;1.27;;
76813;SDS011;65767;49.360;8.266;2023-01-09T05:43:33;3.87;;;1.47;;
76813;SDS011;65767;49.360;8.266;2023-01-09T05:44:34;3.70;;;1.23;;
76813;SDS011;65767;49.360;8.266;2023-01-09T05:45:36;1.77;;;0.85;;
76813;SDS011;65767;49.360;8.266;2023-01-09T05:46:37;4.60;;;1.13;;
76813;SDS011;65767;49.360;8.266;2023-01-09T05:47:38;2.87;;;1.03;;
76813;SDS011;65767;49.360;8.266;2023-01-09T05:48:39;4.00;;;1.47;;
76813;SDS011;65767;49.360;8.266;2023-01-09T05:49:39;2.40;;;1.27;;
76813;SDS011;65767;49.360;8.266;2023-01-09T05:50:40;4.43;;;1.30;;
76813;SDS011;65767;49.360;8.266;2023-01-09T05:51:40;6.97;;;1.60;;
76813;SDS011;65767;49.360;8.266;2023-01-09T05:52:41;4.07;;;1.60;;
76813;SDS011;65767;49.360;8.266;2023-01-09T05:53:43;5.43;;;2.03;;
76813;SDS011;65767;49.360;8.266;2023-01-09T05:54:43;4.47;;;1.10;;
76813;SDS011;65767;49.360;8.266;2023-01-09T05:55:44;4.10;;;1.10;;
76813;SDS011;65767;49.360;8.266;2023-01-09T05:56:45;5.00;;;1.35;;
76813;SDS011;65767;49.360;8.266;2023-01-09T05:57:48;4.70;;;1.15;;
76813;SDS011;65767;49.360;8.266;2023-01-09T05:58:49;5.65;;;1.33;;
76813;SDS011;65767;49.360;8.266;2023-01-09T05:59:51;7.93;;;1.48;;
76813;SDS011;65767;49.360;8.266;2023-01-09T06:00:52;4.72;;;1.52;;
76813;SDS011;65767;49.360;8.266;2023-01-09T06:01:52;7.72;;;1.35;;
76813;SDS011;65767;49.360;8.266;2023-01-09T06:02:53;5.57;;;1.40;;
76813;SDS011;65767;49.360;8.266;2023-01-09T06:03:55;4.90;;;1.67;;
76813;SDS011;65767;49.360;8.266;2023-01-09T06:04:55;7.85;;;1.23;;
76813;SDS011;65767;49.360;8.266;2023-01-09T06:05:57;3.58;;;1.77;;
76813;SDS011;65767;49.360;8.266;2023-01-09T06:06:58;2.60;;;1.50;;
76813;SDS011;65767;49.360;8.266;2023-01-09T06:07:58;6.97;;;1.20;;
76813;SDS011;65767;49.360;8.266;2023-01-09T06:09:00;4.18;;;1.27;;
76813;SDS011;65767;49.360;8.266;2023-01-09T06:10:02;4.72;;;1.50;;
76813;SDS011;65767;49.360;8.266;2023-01-09T06:11:03;3.73;;;1.23;;
76813;SDS011;65767;49.360;8.266;2023-01-09T06:12:08;6.75;;;1.00;;
76813;SDS011;65767;49.360;8.266;2023-01-09T06:13:09;3.13;;;1.30;;
76813;SDS011;65767;49.360;8.266;2023-01-09T06:14:09;3.53;;;1.43;;
76813;SDS011;65767;49.360;8.266;2023-01-09T06:15:10;2.58;;;1.00;;
76813;SDS011;65767;49.360;8.266;2023-01-09T06:16:11;4.17;;;1.23;;
76813;SDS011;65767;49.360;8.266;2023-01-09T06:17:14;3.75;;;1.30;;
76813;SDS011;65767;49.360;8.266;2023-01-09T06:18:15;3.97;;;1.25;;
76813;SDS011;65767;49.360;8.266;2023-01-09T06:19:16;5.37;;;1.30;;
76813;SDS011;65767;49.360;8.266;2023-01-09T06:20:18;3.33;;;1.30;;
76813;SDS011;65767;49.360;8.266;2023-01-09T06:21:18;3.47;;;1.30;;
76813;SDS011;65767;49.360;8.266;2023-01-09T06:22:19;5.90;;;1.50;;
76813;SDS011;65767;49.360;8.266;2023-01-09T06:23:19;4.00;;;1.33;;
76813;SDS011;65767;49.360;8.266;2023-01-09T06:24:20;5.40;;;1.50;;
76813;SDS011;65767;49.360;8.266;2023-01-09T06:25:21;5.15;;;1.30;;
76813;SDS011;65767;49.360;8.266;2023-01-09T06:26:22;6.67;;;1.50;;
76813;SDS011;65767;49.360;8.266;2023-01-09T06:27:23;4.23;;;1.50;;
76813;SDS011;65767;49.360;8.266;2023-01-09T06:28:25;3.57;;;1.47;;
76813;SDS011;65767;49.360;8.266;2023-01-09T06:29:25;7.88;;;1.90;;
76813;SDS011;65767;49.360;8.266;2023-01-09T06:30:25;4.40;;;1.47;;
76813;SDS011;65767;49.360;8.266;2023-01-09T06:31:27;2.63;;;1.13;;
76813;SDS011;65767;49.360;8.266;2023-01-09T06:32:27;6.47;;;1.90;;
76813;SDS011;65767;49.360;8.266;2023-01-09T06:33:29;9.33;;;1.53;;
76813;SDS011;65767;49.360;8.266;2023-01-09T06:34:31;5.30;;;1.60;;
76813;SDS011;65767;49.360;8.266;2023-01-09T06:35:31;3.63;;;1.13;;
76813;SDS011;65767;49.360;8.266;2023-01-09T06:36:31;5.50;;;1.10;;
76813;SDS011;65767;49.360;8.266;2023-01-09T06:37:32;6.17;;;1.73;;
76813;SDS011;65767;49.360;8.266;2023-01-09T06:38:32;4.80;;;1.17;;
76813;SDS011;65767;49.360;8.266;2023-01-09T06:39:33;5.47;;;1.93;;
76813;SDS011;65767;49.360;8.266;2023-01-09T06:40:34;4.93;;;1.90;;
76813;SDS011;65767;49.360;8.266;2023-01-09T06:41:34;7.57;;;2.00;;
76813;SDS011;65767;49.360;8.266;2023-01-09T06:42:36;6.50;;;1.30;;
76813;SDS011;65767;49.360;8.266;2023-01-09T06:43:36;6.77;;;1.40;;